createdAt,value
2023-05-10T09:48:49.510Z,18.27
2023-05-10T09:51:23.201Z,18.33
2023-05-10T09:54:18.242Z,18.29
2023-05-10T09:56:46.660Z,18.31
2023-05-10T09:59:14.999Z,18.31
2023-05-10T10:01:50.308Z,18.32
2023-05-10T10:04:19.198Z,18.33
2023-05-10T10:06:48.206Z,18.30
2023-05-10T10:09:16.619Z,18.32
2023-05-10T10:12:06.414Z,18.30
2023-05-10T10:14:35.658Z,18.34
2023-05-10T10:17:09.228Z,18.36
2023-05-10T10:19:38.856Z,18.36
2023-05-10T10:22:08.107Z,18.35
2023-05-10T10:24:37.880Z,18.34
2023-05-10T10:28:00.322Z,18.38
2023-05-10T10:30:43.693Z,18.43
2023-05-10T10:33:42.044Z,18.48
2023-05-10T10:36:10.769Z,18.52
2023-05-10T10:38:51.487Z,18.55
2023-05-10T10:41:32.393Z,18.59
2023-05-10T10:44:52.199Z,18.61
2023-05-10T10:47:31.192Z,18.69
2023-05-10T10:50:14.200Z,18.74
2023-05-10T10:53:14.307Z,18.82
2023-05-10T10:55:49.543Z,18.86
2023-05-10T10:58:35.023Z,18.92
2023-05-10T11:01:17.976Z,18.97
2023-05-10T11:04:04.373Z,19.01
2023-05-10T11:06:34.695Z,19.05
2023-05-10T11:09:11.450Z,19.05
2023-05-10T11:11:53.526Z,19.12
2023-05-10T11:14:23.864Z,19.19
2023-05-10T11:16:56.387Z,19.25
2023-05-10T11:19:33.235Z,19.27
2023-05-10T11:22:06.732Z,19.27
2023-05-10T11:24:37.644Z,19.33
2023-05-10T11:27:08.664Z,19.37
2023-05-10T11:29:37.420Z,19.42
2023-05-10T11:35:30.314Z,19.49
2023-05-10T11:38:39.194Z,19.50
2023-05-10T11:41:14.648Z,19.57
2023-05-10T11:43:47.972Z,19.65
2023-05-10T11:46:28.085Z,19.72
2023-05-10T11:49:03.044Z,19.74
2023-05-10T11:51:38.215Z,19.81
2023-05-10T11:54:11.841Z,19.87
2023-05-10T11:56:41.921Z,19.93
2023-05-10T11:59:10.349Z,19.98
2023-05-10T12:01:39.003Z,20.02
2023-05-10T12:04:07.859Z,20.07
2023-05-10T12:06:41.830Z,20.09
2023-05-10T12:09:10.374Z,20.16
2023-05-10T12:11:44.654Z,20.19
2023-05-10T12:14:13.348Z,20.23
2023-05-10T12:16:42.074Z,20.26
2023-05-10T12:19:11.035Z,20.29
2023-05-10T12:21:40.222Z,20.30
2023-05-10T12:24:09.064Z,20.31
2023-05-10T12:29:20.517Z,20.34
2023-05-10T12:32:00.032Z,20.37
2023-05-10T12:34:34.147Z,20.38
2023-05-10T12:37:04.637Z,20.43
2023-05-10T12:39:44.407Z,20.46
2023-05-10T12:42:24.019Z,20.48
2023-05-10T12:45:01.290Z,20.49
2023-05-10T12:47:29.858Z,20.54
2023-05-10T12:49:58.468Z,20.57
2023-05-10T12:52:27.946Z,20.61
2023-05-10T12:54:56.332Z,20.63
2023-05-10T12:57:24.652Z,20.67
2023-05-10T12:59:53.453Z,20.71
2023-05-10T13:02:22.581Z,20.75
2023-05-10T13:04:51.643Z,20.75
2023-05-10T13:07:20.334Z,20.75
2023-05-10T13:09:48.837Z,20.75
2023-05-10T13:12:16.998Z,20.74
2023-05-10T13:14:45.352Z,20.76
2023-05-10T13:17:13.637Z,20.82
2023-05-10T13:19:42.009Z,20.83
2023-05-10T13:22:10.374Z,20.87
2023-05-10T13:24:38.664Z,20.89
2023-05-10T13:27:06.878Z,20.88
2023-05-10T13:29:35.087Z,20.89
2023-05-10T13:32:03.512Z,20.88
2023-05-10T13:34:31.825Z,20.86
2023-05-10T13:37:00.136Z,20.86
2023-05-10T13:39:28.616Z,20.86
2023-05-10T13:41:56.849Z,20.87
2023-05-10T13:44:25.138Z,20.88
2023-05-10T13:46:53.620Z,20.95
2023-05-10T13:49:23.175Z,21.01
2023-05-10T13:51:52.107Z,21.00
2023-05-10T13:54:21.074Z,21.00
2023-05-10T13:56:49.855Z,21.05
2023-05-10T13:59:18.415Z,21.07
2023-05-10T14:01:47.077Z,21.07
2023-05-10T14:04:15.530Z,21.10
2023-05-10T14:06:43.775Z,21.11
2023-05-10T14:09:11.986Z,21.10
2023-05-10T14:11:44.231Z,21.11
2023-05-10T14:14:14.436Z,21.13
2023-05-10T14:16:46.107Z,21.11
2023-05-10T14:19:14.585Z,21.05
2023-05-10T14:21:42.905Z,20.99
2023-05-10T14:24:11.363Z,20.96
2023-05-10T14:26:39.632Z,20.93
2023-05-10T14:29:09.325Z,20.90
2023-05-10T14:31:39.081Z,20.89
2023-05-10T14:34:07.991Z,20.88
2023-05-10T14:36:36.178Z,20.88
2023-05-10T14:39:05.176Z,20.85
2023-05-10T14:41:34.186Z,20.81
2023-05-10T14:44:04.587Z,20.80
2023-05-10T14:46:32.975Z,20.76
2023-05-10T14:49:01.235Z,20.78
2023-05-10T14:51:29.514Z,20.78
2023-05-10T14:53:57.838Z,20.75
2023-05-10T14:56:27.249Z,20.72
2023-05-10T14:58:55.628Z,20.70
2023-05-10T15:01:25.733Z,20.66
2023-05-10T15:03:55.755Z,20.61
2023-05-10T15:06:31.436Z,20.54
2023-05-10T15:08:59.686Z,20.46
2023-05-10T15:11:28.435Z,20.42
2023-05-10T15:13:56.746Z,20.39
2023-05-10T15:16:25.251Z,20.37
2023-05-10T15:18:53.925Z,20.34
2023-05-10T15:21:22.703Z,20.30
2023-05-10T15:23:50.973Z,20.26
2023-05-10T15:26:44.445Z,20.20
2023-05-10T15:29:22.127Z,20.13
2023-05-10T15:32:25.670Z,20.07
2023-05-10T15:35:21.453Z,20.04
2023-05-10T15:38:06.776Z,20.00
2023-05-10T15:40:35.353Z,19.95
2023-05-10T15:43:03.919Z,19.91
2023-05-10T15:45:32.653Z,19.87
2023-05-10T15:48:02.232Z,19.84
2023-05-10T15:50:30.726Z,19.81
2023-05-10T15:52:59.014Z,19.76
2023-05-10T15:55:27.877Z,19.71
2023-05-10T15:57:57.010Z,19.65
2023-05-10T16:00:26.611Z,19.59
2023-05-10T16:03:12.291Z,19.53
2023-05-10T16:05:45.982Z,19.45
2023-05-10T16:08:15.172Z,19.39
2023-05-10T16:10:43.828Z,19.36
2023-05-10T16:13:12.763Z,19.33
2023-05-10T16:15:44.148Z,19.30
2023-05-10T16:18:14.917Z,19.27
2023-05-10T16:20:44.702Z,19.23
2023-05-10T16:23:15.635Z,19.20
2023-05-10T16:25:48.055Z,19.16
2023-05-10T16:28:16.734Z,19.12
2023-05-10T16:30:45.120Z,19.09
2023-05-10T16:33:14.506Z,19.06
2023-05-10T16:35:43.062Z,19.01
2023-05-10T16:38:11.611Z,18.93
2023-05-10T16:40:40.045Z,18.88
2023-05-10T16:43:15.830Z,18.82
2023-05-10T16:45:44.742Z,18.78
2023-05-10T16:48:13.763Z,18.75
2023-05-10T16:51:04.943Z,18.70
2023-05-10T16:53:34.034Z,18.66
2023-05-10T16:56:07.507Z,18.63
2023-05-10T16:58:36.398Z,18.58
2023-05-10T17:01:05.330Z,18.54
2023-05-10T17:03:34.092Z,18.50
2023-05-10T17:06:02.863Z,18.45
2023-05-10T17:08:31.411Z,18.41
2023-05-10T17:11:04.380Z,18.37
2023-05-10T17:13:33.273Z,18.32
2023-05-10T17:16:05.365Z,18.28
2023-05-10T17:18:34.056Z,18.24
2023-05-10T17:21:03.483Z,18.20
2023-05-10T17:23:32.173Z,18.15
2023-05-10T17:26:01.764Z,18.11
2023-05-10T17:28:30.273Z,18.09
2023-05-10T17:30:59.350Z,18.04
2023-05-10T17:33:27.936Z,18.01
2023-05-10T17:35:57.012Z,17.97
2023-05-10T17:38:25.779Z,17.93
2023-05-10T17:40:55.216Z,17.89
2023-05-10T17:43:24.073Z,17.84
2023-05-10T17:45:52.487Z,17.79
2023-05-10T17:48:22.403Z,17.76
2023-05-10T17:51:02.096Z,17.70
2023-05-10T17:53:32.560Z,17.67
2023-05-10T17:56:02.005Z,17.61
2023-05-10T17:58:31.314Z,17.57
2023-05-10T18:00:59.759Z,17.54
2023-05-10T18:03:28.380Z,17.49
2023-05-10T18:05:57.336Z,17.44
2023-05-10T18:08:27.508Z,17.38
2023-05-10T18:10:56.775Z,17.32
2023-05-10T18:13:25.792Z,17.25
2023-05-10T18:15:54.373Z,17.19
2023-05-10T18:18:23.117Z,17.12
2023-05-10T18:20:56.884Z,17.04
2023-05-10T18:23:25.325Z,16.97
2023-05-10T18:25:54.129Z,16.90
2023-05-10T18:28:22.621Z,16.82
2023-05-10T18:30:51.580Z,16.75
2023-05-10T18:33:20.266Z,16.68
2023-05-10T18:35:48.617Z,16.62
2023-05-10T18:38:17.311Z,16.54
2023-05-10T18:40:45.675Z,16.47
2023-05-10T18:43:14.088Z,16.39
2023-05-10T18:45:45.418Z,16.31
2023-05-10T18:48:14.208Z,16.22
2023-05-10T18:50:42.555Z,16.15
2023-05-10T18:53:10.979Z,16.08
2023-05-10T18:55:40.109Z,15.99
2023-05-10T18:58:09.396Z,15.91
2023-05-10T19:00:37.706Z,15.83
2023-05-10T19:03:06.247Z,15.75
2023-05-10T19:05:36.239Z,15.69
2023-05-10T19:08:04.748Z,15.62
2023-05-10T19:10:33.276Z,15.54
2023-05-10T19:13:01.629Z,15.44
2023-05-10T19:15:29.991Z,15.39
2023-05-10T19:17:58.342Z,15.31
2023-05-10T19:20:27.017Z,15.24
2023-05-10T19:23:09.030Z,15.16
2023-05-10T19:25:42.596Z,15.07
2023-05-10T19:28:11.954Z,15.00
2023-05-10T19:30:40.940Z,14.92
2023-05-10T19:33:10.623Z,14.85
2023-05-10T19:35:39.041Z,14.78
2023-05-10T19:38:07.694Z,14.67
2023-05-10T19:40:41.324Z,14.60
2023-05-10T19:43:10.015Z,14.53
2023-05-10T19:45:41.151Z,14.48
2023-05-10T19:48:11.377Z,14.43
2023-05-10T19:50:40.199Z,14.40
2023-05-10T19:53:15.949Z,14.37
2023-05-10T19:55:50.192Z,14.36
2023-05-10T19:59:06.697Z,14.34
2023-05-10T20:01:09.849Z,14.31
2023-05-10T20:03:38.676Z,14.29
2023-05-10T20:06:16.299Z,14.27
2023-05-10T20:08:45.458Z,14.23
2023-05-10T20:11:14.567Z,14.18
2023-05-10T20:13:43.143Z,14.14
2023-05-10T20:16:19.787Z,14.11
2023-05-10T20:19:12.368Z,14.04
2023-05-10T20:21:44.467Z,14.03
2023-05-10T20:24:13.177Z,14.00
2023-05-10T20:26:44.926Z,13.97
2023-05-10T20:29:16.375Z,13.95
2023-05-10T20:31:45.036Z,13.93
2023-05-10T20:34:15.764Z,13.91
2023-05-10T20:36:44.419Z,13.89
2023-05-10T20:39:13.320Z,13.87
2023-05-10T20:41:42.277Z,13.85
2023-05-10T20:44:10.854Z,13.83
2023-05-10T20:46:51.415Z,13.80
2023-05-10T20:49:20.057Z,13.77
2023-05-10T20:51:51.730Z,13.77
2023-05-10T20:54:23.398Z,13.75
2023-05-10T20:56:52.337Z,13.72
2023-05-10T20:59:22.136Z,13.72
2023-05-10T21:02:00.466Z,13.70
2023-05-10T21:04:29.279Z,13.69
2023-05-10T21:06:58.054Z,13.67
2023-05-10T21:09:28.008Z,13.65
2023-05-10T21:11:58.065Z,13.62
2023-05-10T21:14:30.704Z,13.60
2023-05-10T21:16:59.034Z,13.58
2023-05-10T21:19:27.341Z,13.55
2023-05-10T21:21:58.813Z,13.52
2023-05-10T21:24:29.824Z,13.50
2023-05-10T21:26:58.367Z,13.49
2023-05-10T21:29:27.540Z,13.48
2023-05-10T21:31:55.908Z,13.46
2023-05-10T21:34:24.290Z,13.45
2023-05-10T21:36:54.890Z,13.44
2023-05-10T21:39:23.207Z,13.42
2023-05-10T21:41:51.734Z,13.41
2023-05-10T21:44:20.082Z,13.39
2023-05-10T21:46:48.571Z,13.37
2023-05-10T21:49:16.842Z,13.34
2023-05-10T21:51:45.133Z,13.32
2023-05-10T21:54:13.477Z,13.31
2023-05-10T21:56:44.385Z,13.29
2023-05-10T21:59:12.693Z,13.27
2023-05-10T22:01:41.455Z,13.24
2023-05-10T22:04:10.092Z,13.22
2023-05-10T22:06:38.770Z,13.19
2023-05-10T22:09:07.118Z,13.17
2023-05-10T22:11:35.342Z,13.15
2023-05-10T22:14:03.731Z,13.12
2023-05-10T22:16:32.086Z,13.09
2023-05-10T22:19:00.335Z,13.07
2023-05-10T22:21:28.835Z,13.05
2023-05-10T22:23:57.554Z,13.03
2023-05-10T22:26:26.246Z,13.00
2023-05-10T22:28:54.628Z,12.98
2023-05-10T22:31:22.957Z,12.95
2023-05-10T22:33:51.340Z,12.93
2023-05-10T22:36:19.569Z,12.91
2023-05-10T22:38:47.973Z,12.87
2023-05-10T22:41:16.409Z,12.85
2023-05-10T22:43:45.873Z,12.83
2023-05-10T22:46:14.265Z,12.81
2023-05-10T22:48:43.572Z,12.78
2023-05-10T22:51:12.215Z,12.76
2023-05-10T22:53:41.481Z,12.73
2023-05-10T22:56:09.858Z,12.71
2023-05-10T22:58:38.560Z,12.69
2023-05-10T23:01:15.305Z,12.67
2023-05-10T23:03:43.592Z,12.65
2023-05-10T23:06:11.893Z,12.62
2023-05-10T23:08:40.444Z,12.60
2023-05-10T23:11:08.716Z,12.58
2023-05-10T23:13:37.011Z,12.56
2023-05-10T23:16:08.842Z,12.54
2023-05-10T23:18:37.188Z,12.51
2023-05-10T23:21:06.212Z,12.49
2023-05-10T23:23:34.876Z,12.47
2023-05-10T23:26:04.960Z,12.44
2023-05-10T23:28:33.139Z,12.42
2023-05-10T23:31:01.330Z,12.38
2023-05-10T23:33:29.956Z,12.36
2023-05-10T23:35:58.182Z,12.33
2023-05-10T23:38:26.864Z,12.31
2023-05-10T23:40:55.292Z,12.29
2023-05-10T23:43:23.522Z,12.26
2023-05-10T23:45:56.358Z,12.25
2023-05-10T23:48:24.728Z,12.22
2023-05-10T23:50:53.010Z,12.18
2023-05-10T23:53:21.437Z,12.17
2023-05-10T23:55:52.272Z,12.14
2023-05-10T23:58:21.439Z,12.12
